createdAt,value
2019-04-30T00:01:18.926Z,5.50
2019-04-30T00:03:25.037Z,5.50
2019-04-30T00:05:26.481Z,5.50
2019-04-30T00:07:27.867Z,5.50
2019-04-30T00:09:29.972Z,5.40
2019-04-30T00:11:31.323Z,5.40
2019-04-30T00:13:32.779Z,5.40
2019-04-30T00:15:35.705Z,5.30
2019-04-30T00:17:37.283Z,5.30
2019-04-30T00:19:38.666Z,5.30
2019-04-30T00:21:40.048Z,5.30
2019-04-30T00:23:41.568Z,5.30
2019-04-30T00:25:43.005Z,5.30
2019-04-30T00:27:45.905Z,5.30
2019-04-30T00:29:47.759Z,5.30
2019-04-30T00:31:49.144Z,5.20
2019-04-30T00:33:52.741Z,5.20
2019-04-30T00:35:55.145Z,5.20
2019-04-30T00:38:00.108Z,5.20
2019-04-30T00:40:00.432Z,5.20
2019-04-30T00:42:01.857Z,5.20
2019-04-30T00:44:05.295Z,5.20
2019-04-30T00:46:06.720Z,5.20
2019-04-30T00:48:08.125Z,5.20
2019-04-30T00:50:09.616Z,5.10
2019-04-30T00:52:11.008Z,5.10
2019-04-30T00:54:12.425Z,5.10
2019-04-30T00:56:15.654Z,5.00
2019-04-30T00:58:24.771Z,5.00
2019-04-30T01:00:26.010Z,5.00
2019-04-30T01:02:32.312Z,5.00
2019-04-30T01:04:38.707Z,5.00
2019-04-30T01:06:40.096Z,5.00
2019-04-30T01:08:41.535Z,4.90
2019-04-30T01:10:42.903Z,4.90
2019-04-30T01:12:47.995Z,4.90
2019-04-30T01:14:49.664Z,4.80
2019-04-30T01:16:50.895Z,4.80
2019-04-30T01:18:52.326Z,4.80
2019-04-30T01:20:53.779Z,4.70
2019-04-30T01:22:55.264Z,4.80
2019-04-30T01:25:02.853Z,4.70
2019-04-30T01:27:06.585Z,4.70
2019-04-30T01:29:03.970Z,4.70
2019-04-30T01:31:06.091Z,4.70
2019-04-30T01:33:09.138Z,4.70
2019-04-30T01:35:11.236Z,4.60
2019-04-30T01:37:12.661Z,4.60
2019-04-30T01:39:14.051Z,4.60
2019-04-30T01:41:15.417Z,4.60
2019-04-30T01:43:23.132Z,4.60
2019-04-30T01:45:23.276Z,4.50
2019-04-30T01:47:27.719Z,4.50
2019-04-30T01:49:28.816Z,4.50
2019-04-30T01:51:30.074Z,4.50
2019-04-30T01:53:31.491Z,4.40
2019-04-30T01:55:34.777Z,4.40
2019-04-30T01:57:43.803Z,4.40
2019-04-30T02:00:03.631Z,4.30
2019-04-30T02:02:05.172Z,4.20
2019-04-30T02:04:08.467Z,4.20
2019-04-30T02:06:11.585Z,4.20
2019-04-30T02:08:13.142Z,4.20
2019-04-30T02:10:14.848Z,4.20
2019-04-30T02:12:16.213Z,4.10
2019-04-30T02:14:18.978Z,4.10
2019-04-30T02:16:21.107Z,4.10
2019-04-30T02:18:22.703Z,4.10
2019-04-30T02:20:24.078Z,4.10
2019-04-30T02:22:25.475Z,4.10
2019-04-30T02:24:28.779Z,4.10
2019-04-30T02:26:30.117Z,4.10
2019-04-30T02:28:31.511Z,4.10
2019-04-30T02:30:32.890Z,4.10
2019-04-30T02:32:34.252Z,4.00
2019-04-30T02:34:44.048Z,4.00
2019-04-30T02:36:49.920Z,4.00
2019-04-30T02:38:56.104Z,4.00
2019-04-30T02:40:59.486Z,3.90
2019-04-30T02:43:02.319Z,3.90
2019-04-30T02:45:10.139Z,3.90
2019-04-30T02:47:12.502Z,3.90
2019-04-30T02:49:14.239Z,3.90
2019-04-30T02:51:20.176Z,3.90
2019-04-30T02:53:51.027Z,3.80
2019-04-30T02:55:52.391Z,3.80
2019-04-30T02:57:53.752Z,3.70
2019-04-30T03:00:06.283Z,3.60
2019-04-30T03:02:11.487Z,3.60
2019-04-30T03:04:10.946Z,3.60
2019-04-30T03:06:12.351Z,3.60
2019-04-30T03:08:13.758Z,3.50
2019-04-30T03:10:15.140Z,3.50
2019-04-30T03:12:16.567Z,3.50
2019-04-30T03:14:19.990Z,3.50
2019-04-30T03:16:23.616Z,3.50
2019-04-30T03:18:30.046Z,3.40
2019-04-30T03:20:41.287Z,3.40
2019-04-30T03:22:42.875Z,3.40
2019-04-30T03:24:44.246Z,3.40
2019-04-30T03:26:45.736Z,3.40
2019-04-30T03:28:49.203Z,3.40
2019-04-30T03:30:56.182Z,3.30
2019-04-30T03:32:56.950Z,3.30
2019-04-30T03:34:57.020Z,3.30
2019-04-30T03:37:01.727Z,3.20
2019-04-30T03:39:01.674Z,3.20
2019-04-30T03:41:03.148Z,3.20
2019-04-30T03:43:04.547Z,3.20
2019-04-30T03:45:06.241Z,3.20
2019-04-30T03:47:10.610Z,3.10
2019-04-30T03:49:13.368Z,3.10
2019-04-30T03:51:14.641Z,3.10
2019-04-30T03:53:16.053Z,3.10
2019-04-30T03:55:20.350Z,3.10
2019-04-30T03:57:20.840Z,3.00
2019-04-30T03:59:22.175Z,3.00
2019-04-30T04:01:31.607Z,3.00
2019-04-30T04:03:34.936Z,3.00
2019-04-30T04:05:41.034Z,2.90
2019-04-30T04:07:52.501Z,2.90
2019-04-30T04:10:01.265Z,2.90
2019-04-30T04:12:23.105Z,2.90
2019-04-30T04:14:24.577Z,3.00
2019-04-30T04:16:26.270Z,3.00
2019-04-30T04:18:30.077Z,3.00
2019-04-30T04:20:30.963Z,2.90
2019-04-30T04:22:32.369Z,2.90
2019-04-30T04:24:33.713Z,2.90
2019-04-30T04:26:35.198Z,3.00
2019-04-30T04:28:36.524Z,3.00
2019-04-30T04:30:39.268Z,3.00
2019-04-30T04:32:41.224Z,3.10
2019-04-30T04:34:44.978Z,3.10
2019-04-30T04:36:46.390Z,3.10
2019-04-30T04:38:50.419Z,3.20
2019-04-30T04:40:51.139Z,3.20
2019-04-30T04:42:52.529Z,3.20
2019-04-30T04:44:53.965Z,3.20
2019-04-30T04:46:55.720Z,3.20
2019-04-30T04:48:59.387Z,3.20
2019-04-30T04:51:00.409Z,3.30
2019-04-30T04:53:01.788Z,3.30
2019-04-30T04:55:06.697Z,3.30
2019-04-30T04:57:15.028Z,3.40
2019-04-30T04:59:11.335Z,3.40
2019-04-30T05:01:12.749Z,3.50
2019-04-30T05:03:20.171Z,3.50
2019-04-30T05:05:21.804Z,3.50
2019-04-30T05:07:23.247Z,3.60
2019-04-30T05:09:24.613Z,3.60
2019-04-30T05:11:26.000Z,3.70
2019-04-30T05:13:29.082Z,3.70
2019-04-30T05:15:30.616Z,3.70
2019-04-30T05:17:32.207Z,3.80
2019-04-30T05:19:33.716Z,3.80
2019-04-30T05:21:44.140Z,3.90
2019-04-30T05:23:41.110Z,3.90
2019-04-30T05:25:41.725Z,4.00
2019-04-30T05:27:45.336Z,4.00
2019-04-30T05:29:46.761Z,4.00
2019-04-30T05:31:48.695Z,4.10
2019-04-30T05:33:50.122Z,4.20
2019-04-30T05:35:51.544Z,4.20
2019-04-30T05:37:52.914Z,4.30
2019-04-30T05:39:54.299Z,4.40
2019-04-30T05:41:55.777Z,4.50
2019-04-30T05:43:58.981Z,4.50
2019-04-30T05:46:00.483Z,4.60
2019-04-30T05:48:01.849Z,4.70
2019-04-30T05:50:08.916Z,4.70
2019-04-30T05:52:11.650Z,4.80
2019-04-30T05:54:13.190Z,4.80
2019-04-30T05:56:14.596Z,4.90
2019-04-30T05:58:16.207Z,5.00
2019-04-30T06:00:19.134Z,5.00
2019-04-30T06:02:21.901Z,5.10
2019-04-30T06:04:23.270Z,5.20
2019-04-30T06:06:24.775Z,5.30
2019-04-30T06:08:29.200Z,5.40
2019-04-30T06:10:32.674Z,5.60
2019-04-30T06:12:35.989Z,5.70
2019-04-30T06:14:49.935Z,5.90
2019-04-30T06:17:05.208Z,6.10
2019-04-30T06:19:08.387Z,6.30
2019-04-30T06:21:09.948Z,6.80
2019-04-30T06:23:11.366Z,7.30
2019-04-30T06:25:12.863Z,7.90
2019-04-30T06:27:14.546Z,8.20
2019-04-30T06:29:16.102Z,8.70
2019-04-30T06:31:26.078Z,9.20
2019-04-30T06:33:21.174Z,9.50
2019-04-30T06:35:22.844Z,9.80
2019-04-30T06:37:24.451Z,10.00
2019-04-30T06:39:25.941Z,10.20
2019-04-30T06:41:29.537Z,10.50
2019-04-30T06:43:31.042Z,10.50
2019-04-30T06:45:34.414Z,10.80
2019-04-30T06:47:38.781Z,11.00
2019-04-30T06:49:39.987Z,11.20
2019-04-30T06:51:41.450Z,11.40
2019-04-30T06:53:42.913Z,11.50
2019-04-30T06:55:44.327Z,11.80
2019-04-30T06:57:45.790Z,12.00
2019-04-30T06:59:47.178Z,12.20
2019-04-30T07:01:49.012Z,12.20
2019-04-30T07:03:50.630Z,12.30
2019-04-30T07:05:52.116Z,12.40
2019-04-30T07:08:12.441Z,12.40
2019-04-30T07:10:16.839Z,12.40
2019-04-30T07:12:27.882Z,12.50
2019-04-30T07:14:29.160Z,12.80
2019-04-30T07:16:30.387Z,12.80
2019-04-30T07:18:31.760Z,13.00
2019-04-30T07:20:34.107Z,13.00
2019-04-30T07:22:41.106Z,13.20
2019-04-30T07:24:39.455Z,13.20
2019-04-30T07:26:40.977Z,13.30
2019-04-30T07:28:47.924Z,13.50
2019-04-30T07:30:45.664Z,13.70
2019-04-30T07:32:48.802Z,13.80
2019-04-30T07:34:50.379Z,13.90
2019-04-30T07:37:10.939Z,13.90
2019-04-30T07:38:56.848Z,13.90
2019-04-30T07:40:59.148Z,14.00
2019-04-30T07:43:00.632Z,14.20
2019-04-30T07:45:05.192Z,14.40
2019-04-30T07:47:06.571Z,14.60
2019-04-30T07:49:10.046Z,14.60
2019-04-30T07:51:11.810Z,14.60
2019-04-30T07:53:13.693Z,14.50
2019-04-30T07:55:15.092Z,14.50
2019-04-30T07:57:16.452Z,14.40
2019-04-30T07:59:19.985Z,14.30
2019-04-30T08:01:21.111Z,14.20
2019-04-30T08:03:29.938Z,14.10
2019-04-30T08:05:32.431Z,14.20
2019-04-30T08:07:33.880Z,14.30
2019-04-30T08:09:39.827Z,14.30
2019-04-30T08:11:41.926Z,14.40
2019-04-30T08:13:42.592Z,14.50
2019-04-30T08:15:44.664Z,14.60
2019-04-30T08:17:46.031Z,14.80
2019-04-30T08:19:48.948Z,14.90
2019-04-30T08:21:50.567Z,15.10
2019-04-30T08:23:51.919Z,15.20
2019-04-30T08:25:53.902Z,15.30
2019-04-30T08:27:55.266Z,15.10
2019-04-30T08:29:56.657Z,15.00
2019-04-30T08:31:59.366Z,15.00
2019-04-30T08:34:01.011Z,15.20
2019-04-30T08:36:02.396Z,15.30
2019-04-30T08:38:03.749Z,15.40
2019-04-30T08:40:05.876Z,15.40
2019-04-30T08:42:09.009Z,15.40
2019-04-30T08:44:11.100Z,15.20
2019-04-30T08:46:12.542Z,15.20
2019-04-30T08:48:13.929Z,15.20
2019-04-30T08:50:15.625Z,15.20
2019-04-30T08:52:19.230Z,15.30
2019-04-30T08:54:20.792Z,15.50
2019-04-30T08:56:22.430Z,15.70
2019-04-30T08:58:23.851Z,15.90
2019-04-30T09:00:25.230Z,16.10
2019-04-30T09:02:26.672Z,16.30
2019-04-30T09:04:29.148Z,16.50
2019-04-30T09:06:30.682Z,16.60
2019-04-30T09:08:32.500Z,16.80
2019-04-30T09:10:33.887Z,16.80
2019-04-30T09:12:35.243Z,16.60
2019-04-30T09:14:40.453Z,16.40
2019-04-30T09:16:41.472Z,16.20
2019-04-30T09:18:42.909Z,16.00
2019-04-30T09:20:44.328Z,15.90
2019-04-30T09:22:45.716Z,16.00
2019-04-30T09:24:49.529Z,16.10
2019-04-30T09:26:50.360Z,16.50
2019-04-30T09:28:51.795Z,16.50
2019-04-30T09:30:53.136Z,16.60
2019-04-30T09:32:54.522Z,16.60
2019-04-30T09:34:55.934Z,16.70
2019-04-30T09:36:58.921Z,16.60
2019-04-30T09:39:01.385Z,16.70
2019-04-30T09:41:03.283Z,17.00
2019-04-30T09:43:04.675Z,17.10
2019-04-30T09:45:06.261Z,17.20
2019-04-30T09:47:08.886Z,17.30
2019-04-30T09:49:10.546Z,17.40
2019-04-30T09:51:12.614Z,17.40
2019-04-30T09:53:14.324Z,17.50
2019-04-30T09:55:15.744Z,17.60
2019-04-30T09:57:19.255Z,17.60
2019-04-30T09:59:20.384Z,17.60
2019-04-30T10:01:22.147Z,17.80
2019-04-30T10:03:24.606Z,17.90
2019-04-30T10:05:26.284Z,18.10
2019-04-30T10:07:29.359Z,18.30
2019-04-30T10:09:30.949Z,18.40
2019-04-30T10:11:34.248Z,18.30
2019-04-30T10:13:35.656Z,18.00
2019-04-30T10:15:39.002Z,17.90
2019-04-30T10:17:44.944Z,18.00
2019-04-30T10:19:46.303Z,18.10
2019-04-30T10:21:48.972Z,18.00
2019-04-30T10:23:50.548Z,17.90
2019-04-30T10:25:52.048Z,17.90
2019-04-30T10:27:53.743Z,18.00
2019-04-30T10:29:55.315Z,18.20
2019-04-30T10:31:58.677Z,18.50
2019-04-30T10:34:00.023Z,18.80
2019-04-30T10:36:01.402Z,18.90
2019-04-30T10:38:03.757Z,18.80
2019-04-30T10:40:10.346Z,18.90
2019-04-30T10:42:12.089Z,19.00
2019-04-30T10:44:13.468Z,19.20
2019-04-30T10:46:14.886Z,19.30
2019-04-30T10:48:16.238Z,19.40
2019-04-30T10:50:17.722Z,19.60
2019-04-30T10:52:19.317Z,19.80
2019-04-30T10:54:26.139Z,19.70
2019-04-30T10:56:23.980Z,19.70
2019-04-30T10:58:25.404Z,19.70
2019-04-30T11:00:40.861Z,19.70
2019-04-30T11:02:42.318Z,20.00
2019-04-30T11:04:43.717Z,20.10
2019-04-30T11:06:45.143Z,20.20
2019-04-30T11:08:46.540Z,20.10
2019-04-30T11:10:47.894Z,20.10
2019-04-30T11:12:49.278Z,20.20
2019-04-30T11:14:50.728Z,20.30
2019-04-30T11:16:52.273Z,20.40
2019-04-30T11:18:54.235Z,20.60
2019-04-30T11:20:55.963Z,20.60
2019-04-30T11:22:57.908Z,20.60
2019-04-30T11:25:02.635Z,20.80
2019-04-30T11:27:03.555Z,20.80
2019-04-30T11:29:05.413Z,20.70
2019-04-30T11:31:24.194Z,20.70
2019-04-30T11:33:25.922Z,20.90
2019-04-30T11:35:29.521Z,21.20
2019-04-30T11:37:30.798Z,21.20
2019-04-30T11:39:32.217Z,21.10
2019-04-30T11:41:33.657Z,20.80
2019-04-30T11:43:35.026Z,20.60
2019-04-30T11:45:54.136Z,20.70
2019-04-30T11:47:55.546Z,20.90
2019-04-30T11:49:56.931Z,21.10
2019-04-30T11:51:58.388Z,21.10
2019-04-30T11:54:00.153Z,21.00
2019-04-30T11:56:01.743Z,21.10
2019-04-30T11:58:03.322Z,21.20
2019-04-30T12:00:13.411Z,21.30
2019-04-30T12:02:19.097Z,21.30
2019-04-30T12:04:21.174Z,21.40
2019-04-30T12:06:22.677Z,21.40
2019-04-30T12:08:26.650Z,21.40
2019-04-30T12:10:30.046Z,21.30
2019-04-30T12:12:31.418Z,21.40
2019-04-30T12:14:32.828Z,21.40
2019-04-30T12:16:34.188Z,21.20
2019-04-30T12:18:35.612Z,21.20
2019-04-30T12:20:36.996Z,21.40
2019-04-30T12:22:39.725Z,21.50
2019-04-30T12:24:41.162Z,21.50
2019-04-30T12:26:42.568Z,21.50
2019-04-30T12:28:43.997Z,21.50
2019-04-30T12:30:45.397Z,21.60
2019-04-30T12:32:46.756Z,21.80
2019-04-30T12:34:48.125Z,21.90
2019-04-30T12:36:49.704Z,21.90
2019-04-30T12:38:51.159Z,21.90
2019-04-30T12:40:52.524Z,21.80
2019-04-30T12:42:53.906Z,21.60
2019-04-30T12:44:55.379Z,21.50
2019-04-30T12:46:58.663Z,21.50
2019-04-30T12:49:04.738Z,21.60
2019-04-30T12:51:10.919Z,21.60
2019-04-30T12:53:14.301Z,21.50
2019-04-30T12:55:32.896Z,21.50
2019-04-30T12:57:36.193Z,21.60
2019-04-30T12:59:37.581Z,21.70
2019-04-30T13:01:39.962Z,21.80
2019-04-30T13:03:41.396Z,21.70
2019-04-30T13:05:43.079Z,21.70
2019-04-30T13:07:45.250Z,21.50
2019-04-30T13:09:49.462Z,21.40
2019-04-30T13:11:51.261Z,21.40
2019-04-30T13:13:53.868Z,21.60
2019-04-30T13:15:55.678Z,21.80
2019-04-30T13:17:58.565Z,21.90
2019-04-30T13:20:00.181Z,21.90
2019-04-30T13:22:01.555Z,21.80
2019-04-30T13:24:03.118Z,21.90
2019-04-30T13:26:04.544Z,21.90
2019-04-30T13:28:10.902Z,21.90
2019-04-30T13:30:18.611Z,21.70
2019-04-30T13:32:29.524Z,21.60
2019-04-30T13:34:43.262Z,21.60
2019-04-30T13:36:44.747Z,21.60
2019-04-30T13:38:54.183Z,21.70
2019-04-30T13:41:12.662Z,21.60
2019-04-30T13:43:15.919Z,21.40
2019-04-30T13:45:18.684Z,21.20
2019-04-30T13:47:20.686Z,21.10
2019-04-30T13:49:22.026Z,21.10
2019-04-30T13:51:23.387Z,21.10
2019-04-30T13:53:24.790Z,21.10
2019-04-30T13:55:26.139Z,21.00
2019-04-30T13:57:27.552Z,20.80
2019-04-30T13:59:28.933Z,20.70
2019-04-30T14:01:30.376Z,20.70
2019-04-30T14:03:33.696Z,20.70
2019-04-30T14:05:35.111Z,20.80
2019-04-30T14:07:49.552Z,20.80
2019-04-30T14:09:52.406Z,21.00
2019-04-30T14:11:53.959Z,21.00
2019-04-30T14:13:55.342Z,21.10
2019-04-30T14:15:56.738Z,21.10
2019-04-30T14:17:59.702Z,21.10
2019-04-30T14:20:01.344Z,21.10
2019-04-30T14:22:03.754Z,21.10
2019-04-30T14:24:05.141Z,21.10
2019-04-30T14:26:06.535Z,21.20
2019-04-30T14:28:09.419Z,21.30
2019-04-30T14:30:12.839Z,21.30
2019-04-30T14:32:14.240Z,21.30
2019-04-30T14:34:15.606Z,21.10
2019-04-30T14:36:19.291Z,20.90
2019-04-30T14:38:20.284Z,20.60
2019-04-30T14:40:22.376Z,20.20
2019-04-30T14:42:24.937Z,19.90
2019-04-30T14:44:31.464Z,19.60
2019-04-30T14:46:37.434Z,19.40
2019-04-30T14:49:00.622Z,19.20
2019-04-30T14:51:02.402Z,19.00
2019-04-30T14:53:11.866Z,18.90
2019-04-30T14:55:21.272Z,18.80
2019-04-30T14:57:27.564Z,18.70
2019-04-30T14:59:48.979Z,18.70
2019-04-30T15:01:52.270Z,18.80
2019-04-30T15:03:54.003Z,18.90
2019-04-30T15:05:55.382Z,18.90
2019-04-30T15:07:56.820Z,18.90
2019-04-30T15:09:58.213Z,18.90
2019-04-30T15:11:59.682Z,18.90
2019-04-30T15:14:01.354Z,18.80
2019-04-30T15:16:02.815Z,18.80
2019-04-30T15:18:04.180Z,18.80
2019-04-30T15:20:06.083Z,18.80
2019-04-30T15:22:09.109Z,18.80
2019-04-30T15:24:19.301Z,18.80
2019-04-30T15:26:24.553Z,18.90
2019-04-30T15:28:32.142Z,18.90
2019-04-30T15:30:28.909Z,19.10
2019-04-30T15:32:30.474Z,19.20
2019-04-30T15:34:51.740Z,19.30
2019-04-30T15:36:53.157Z,19.20
2019-04-30T15:39:12.964Z,19.20
2019-04-30T15:41:14.690Z,19.30
2019-04-30T15:43:16.045Z,19.40
2019-04-30T15:45:19.129Z,19.40
2019-04-30T15:47:22.295Z,19.30
2019-04-30T15:49:23.692Z,19.40
2019-04-30T15:51:25.094Z,19.50
2019-04-30T15:53:26.478Z,19.60
2019-04-30T15:55:27.971Z,19.70
2019-04-30T15:57:29.584Z,19.70
2019-04-30T15:59:33.045Z,19.60
2019-04-30T16:01:34.561Z,19.50
2019-04-30T16:03:37.839Z,19.50
2019-04-30T16:05:41.134Z,19.50
2019-04-30T16:07:44.457Z,19.50
2019-04-30T16:09:48.895Z,19.40
2019-04-30T16:12:09.334Z,19.20
2019-04-30T16:14:21.568Z,19.10
2019-04-30T16:16:23.951Z,19.00
2019-04-30T16:18:30.122Z,18.90
2019-04-30T16:20:30.730Z,18.90
2019-04-30T16:22:32.106Z,18.80
2019-04-30T16:24:33.595Z,18.80
2019-04-30T16:26:46.369Z,18.70
2019-04-30T16:28:39.071Z,18.70
2019-04-30T16:30:42.811Z,18.60
2019-04-30T16:32:43.987Z,18.50
2019-04-30T16:34:45.372Z,18.40
2019-04-30T16:36:46.786Z,18.60
2019-04-30T16:38:48.688Z,18.60
2019-04-30T16:40:50.246Z,18.70
2019-04-30T16:42:51.668Z,18.70
2019-04-30T16:44:53.031Z,18.60
2019-04-30T16:46:54.447Z,18.60
2019-04-30T16:48:55.822Z,18.60
2019-04-30T16:50:58.674Z,18.50
2019-04-30T16:53:00.507Z,18.40
2019-04-30T16:55:04.391Z,18.30
2019-04-30T16:57:06.793Z,18.20
2019-04-30T16:59:10.474Z,18.10
2019-04-30T17:01:13.755Z,18.20
2019-04-30T17:03:19.925Z,18.20
2019-04-30T17:05:23.219Z,18.40
2019-04-30T17:07:35.359Z,18.60
2019-04-30T17:09:38.642Z,18.60
2019-04-30T17:11:59.473Z,18.60
2019-04-30T17:14:01.624Z,18.60
2019-04-30T17:16:11.313Z,18.30
2019-04-30T17:18:13.056Z,18.20
2019-04-30T17:20:14.559Z,18.00
2019-04-30T17:22:15.967Z,17.80
2019-04-30T17:24:19.324Z,17.70
2019-04-30T17:26:20.780Z,17.70
2019-04-30T17:28:22.149Z,17.70
2019-04-30T17:30:23.543Z,17.60
2019-04-30T17:32:24.931Z,17.60
2019-04-30T17:34:26.316Z,17.60
2019-04-30T17:36:29.661Z,17.50
2019-04-30T17:38:31.077Z,17.40
2019-04-30T17:40:32.466Z,17.30
2019-04-30T17:42:33.824Z,17.20
2019-04-30T17:44:35.228Z,17.10
2019-04-30T17:46:38.464Z,17.00
2019-04-30T17:48:39.887Z,16.80
2019-04-30T17:50:41.348Z,16.70
2019-04-30T17:52:42.716Z,16.50
2019-04-30T17:54:44.102Z,16.40
2019-04-30T17:56:45.514Z,16.30
2019-04-30T17:58:46.900Z,16.20
2019-04-30T18:00:50.287Z,16.10
2019-04-30T18:02:51.798Z,16.00
2019-04-30T18:04:53.180Z,15.80
2019-04-30T18:06:54.895Z,15.70
2019-04-30T18:08:56.255Z,15.70
2019-04-30T18:10:57.836Z,15.60
2019-04-30T18:12:59.223Z,15.50
2019-04-30T18:15:00.593Z,15.30
2019-04-30T18:17:01.960Z,15.20
2019-04-30T18:19:08.797Z,14.90
2019-04-30T18:21:21.038Z,14.70
2019-04-30T18:23:39.582Z,14.50
2019-04-30T18:25:42.899Z,14.20
2019-04-30T18:27:52.177Z,14.00
2019-04-30T18:29:53.606Z,13.80
2019-04-30T18:31:56.004Z,13.70
2019-04-30T18:33:59.041Z,13.70
2019-04-30T18:36:00.747Z,13.60
2019-04-30T18:38:02.108Z,13.50
2019-04-30T18:40:05.918Z,13.40
2019-04-30T18:42:10.804Z,13.30
2019-04-30T18:44:10.906Z,13.20
2019-04-30T18:46:12.345Z,13.20
2019-04-30T18:48:13.706Z,13.10
2019-04-30T18:50:15.536Z,13.10
2019-04-30T18:52:18.823Z,13.10
2019-04-30T18:54:20.935Z,13.00
2019-04-30T18:56:22.537Z,12.90
2019-04-30T18:58:36.845Z,12.90
2019-04-30T19:00:31.980Z,12.90
2019-04-30T19:02:33.515Z,12.80
2019-04-30T19:04:34.887Z,12.80
2019-04-30T19:06:36.289Z,12.60
2019-04-30T19:08:42.449Z,12.50
2019-04-30T19:11:04.269Z,12.30
2019-04-30T19:13:22.776Z,12.10
2019-04-30T19:16:11.436Z,12.00
2019-04-30T19:17:46.455Z,12.00
2019-04-30T19:20:04.974Z,12.00
2019-04-30T19:22:06.357Z,11.80
2019-04-30T19:24:08.638Z,11.70
2019-04-30T19:26:10.128Z,11.60
2019-04-30T19:28:14.467Z,11.40
2019-04-30T19:30:15.774Z,11.30
2019-04-30T19:32:17.179Z,11.30
2019-04-30T19:34:18.595Z,11.20
2019-04-30T19:36:20.993Z,11.10
2019-04-30T19:38:23.488Z,11.00
2019-04-30T19:40:24.884Z,11.00
2019-04-30T19:42:26.245Z,11.00
2019-04-30T19:44:29.346Z,11.00
2019-04-30T19:46:31.000Z,10.90
2019-04-30T19:48:32.383Z,10.70
2019-04-30T19:50:33.839Z,10.60
2019-04-30T19:52:35.237Z,10.40
2019-04-30T19:54:36.637Z,10.30
2019-04-30T19:56:39.219Z,10.30
2019-04-30T19:58:54.297Z,10.20
2019-04-30T20:00:44.180Z,10.10
2019-04-30T20:02:45.630Z,10.10
2019-04-30T20:04:47.084Z,9.90
2019-04-30T20:06:48.811Z,9.80
2019-04-30T20:08:50.386Z,9.70
2019-04-30T20:10:51.791Z,9.70
2019-04-30T20:12:53.161Z,9.80
2019-04-30T20:14:54.609Z,9.90
2019-04-30T20:16:56.069Z,9.80
2019-04-30T20:18:59.189Z,9.70
2019-04-30T20:21:02.953Z,9.70
2019-04-30T20:23:04.403Z,9.70
2019-04-30T20:25:06.092Z,9.70
2019-04-30T20:27:10.235Z,9.50
2019-04-30T20:29:11.013Z,9.40
2019-04-30T20:31:12.422Z,9.30
2019-04-30T20:33:13.858Z,9.20
2019-04-30T20:35:15.376Z,9.20
2019-04-30T20:37:16.794Z,9.10
2019-04-30T20:39:20.099Z,9.20
2019-04-30T20:41:22.162Z,9.20
2019-04-30T20:43:23.591Z,9.20
2019-04-30T20:45:25.050Z,9.10
2019-04-30T20:47:26.506Z,9.10
2019-04-30T20:49:29.137Z,9.20
2019-04-30T20:51:30.746Z,9.20
2019-04-30T20:53:32.264Z,9.20
2019-04-30T20:55:33.690Z,9.20
2019-04-30T20:57:35.086Z,9.20
2019-04-30T20:59:38.665Z,9.20
2019-04-30T21:01:39.960Z,9.20
2019-04-30T21:03:41.404Z,9.20
2019-04-30T21:05:42.817Z,9.10
2019-04-30T21:07:44.243Z,9.10
2019-04-30T21:09:45.639Z,9.10
2019-04-30T21:11:48.986Z,9.10
2019-04-30T21:13:50.529Z,9.10
2019-04-30T21:15:54.920Z,9.00
2019-04-30T21:17:55.412Z,9.10
2019-04-30T21:19:56.807Z,9.00
2019-04-30T21:21:59.605Z,9.00
2019-04-30T21:24:01.568Z,8.90
2019-04-30T21:26:03.036Z,8.90
2019-04-30T21:28:04.528Z,8.80
2019-04-30T21:30:08.072Z,8.80
2019-04-30T21:32:11.555Z,8.80
2019-04-30T21:34:30.475Z,8.90
2019-04-30T21:36:31.970Z,8.90
2019-04-30T21:38:33.386Z,8.90
2019-04-30T21:40:36.696Z,8.90
2019-04-30T21:42:38.042Z,9.00
2019-04-30T21:44:39.451Z,9.10
2019-04-30T21:46:40.839Z,9.10
2019-04-30T21:48:42.252Z,9.10
2019-04-30T21:50:43.654Z,9.20
2019-04-30T21:52:45.055Z,9.20
2019-04-30T21:54:48.601Z,9.30
2019-04-30T21:56:49.733Z,9.40
2019-04-30T21:58:51.104Z,9.40
2019-04-30T22:01:06.199Z,9.50
2019-04-30T22:03:09.581Z,9.50
2019-04-30T22:05:11.065Z,9.50
2019-04-30T22:07:12.453Z,9.50
2019-04-30T22:09:14.574Z,9.50
2019-04-30T22:11:15.971Z,9.60
2019-04-30T22:13:18.506Z,9.50
2019-04-30T22:15:20.152Z,9.50
2019-04-30T22:17:21.571Z,9.50
2019-04-30T22:19:22.960Z,9.50
2019-04-30T22:21:24.326Z,9.50
2019-04-30T22:23:25.742Z,9.50
2019-04-30T22:25:29.197Z,9.50
2019-04-30T22:27:30.437Z,9.60
2019-04-30T22:29:39.400Z,9.60
2019-04-30T22:31:35.177Z,9.60
2019-04-30T22:33:36.568Z,9.60
2019-04-30T22:35:45.922Z,9.70
2019-04-30T22:37:50.553Z,9.70
2019-04-30T22:39:53.994Z,9.60
2019-04-30T22:42:19.914Z,9.60
2019-04-30T22:44:21.276Z,9.60
2019-04-30T22:46:22.641Z,9.60
2019-04-30T22:48:24.431Z,9.60
2019-04-30T22:50:25.791Z,9.60
2019-04-30T22:52:27.154Z,9.70
2019-04-30T22:54:28.579Z,9.70
2019-04-30T22:56:29.987Z,9.80
2019-04-30T22:58:31.354Z,9.80
2019-04-30T23:00:37.555Z,9.80
2019-04-30T23:02:57.694Z,9.90
2019-04-30T23:05:00.857Z,9.90
2019-04-30T23:07:02.216Z,9.90
2019-04-30T23:09:06.437Z,10.00
2019-04-30T23:11:07.804Z,9.90
2019-04-30T23:13:09.236Z,9.90
2019-04-30T23:15:11.437Z,10.00
2019-04-30T23:17:12.863Z,10.00
2019-04-30T23:19:14.299Z,10.00
2019-04-30T23:21:15.758Z,10.10
2019-04-30T23:23:17.266Z,10.10
2019-04-30T23:25:18.653Z,10.10
2019-04-30T23:27:20.016Z,10.10
2019-04-30T23:29:21.443Z,10.10
2019-04-30T23:31:23.055Z,10.00
2019-04-30T23:33:24.446Z,10.00
2019-04-30T23:35:25.835Z,9.90
2019-04-30T23:37:27.249Z,9.90
2019-04-30T23:39:28.616Z,9.90
2019-04-30T23:41:30.025Z,10.00
2019-04-30T23:43:31.388Z,10.00
2019-04-30T23:45:32.813Z,10.00
2019-04-30T23:47:34.194Z,10.00
2019-04-30T23:49:35.564Z,9.90
2019-04-30T23:51:36.993Z,10.00
2019-04-30T23:53:38.383Z,10.00
2019-04-30T23:55:39.766Z,10.00
2019-04-30T23:57:41.164Z,10.00
2019-04-30T23:59:42.568Z,10.00
